createdAt,value
2022-09-10T00:00:07.720Z,0.00
2022-09-10T00:01:11.306Z,0.00
2022-09-10T00:02:14.599Z,1.00
2022-09-10T00:03:17.632Z,1.00
2022-09-10T00:04:20.857Z,0.25
2022-09-10T00:05:24.155Z,0.00
2022-09-10T00:06:27.537Z,0.00
2022-09-10T00:07:31.016Z,0.00
2022-09-10T00:08:34.505Z,0.00
2022-09-10T00:09:38.002Z,0.00
2022-09-10T00:10:41.597Z,0.50
2022-09-10T00:11:45.185Z,0.50
2022-09-10T00:12:48.937Z,0.50
2022-09-10T00:13:52.262Z,0.50
2022-09-10T00:14:56.056Z,0.00
2022-09-10T00:15:59.125Z,0.00
2022-09-10T00:17:02.933Z,0.00
2022-09-10T00:18:06.314Z,0.75
2022-09-10T00:19:09.810Z,0.00
2022-09-10T00:20:12.954Z,0.50
2022-09-10T00:21:16.070Z,0.00
2022-09-10T00:22:19.658Z,1.00
2022-09-10T00:23:22.937Z,0.75
2022-09-10T00:24:26.433Z,0.00
2022-09-10T00:25:30.120Z,0.00
2022-09-10T00:26:33.522Z,0.00
2022-09-10T00:27:37.005Z,0.00
2022-09-10T00:28:40.385Z,0.00
2022-09-10T00:29:43.786Z,0.00
2022-09-10T00:30:46.913Z,0.00
2022-09-10T00:31:50.050Z,0.00
2022-09-10T00:32:53.212Z,0.00
2022-09-10T00:33:56.502Z,0.00
2022-09-10T00:34:59.985Z,0.00
2022-09-10T00:36:03.274Z,0.00
2022-09-10T00:37:06.428Z,0.00
2022-09-10T00:38:09.739Z,1.25
2022-09-10T00:39:12.824Z,1.00
2022-09-10T00:40:16.103Z,1.00
2022-09-10T00:41:19.488Z,1.00
2022-09-10T00:42:23.041Z,0.00
2022-09-10T00:43:26.447Z,0.50
2022-09-10T00:44:32.640Z,1.40
2022-09-10T00:45:34.039Z,0.50
2022-09-10T00:46:37.724Z,1.00
2022-09-10T00:47:41.250Z,1.00
2022-09-10T00:48:44.725Z,0.00
2022-09-10T00:49:48.191Z,0.50
2022-09-10T00:50:52.229Z,0.50
2022-09-10T00:51:55.603Z,1.25
2022-09-10T00:52:58.800Z,1.50
2022-09-10T00:54:02.383Z,1.00
2022-09-10T00:55:05.659Z,2.00
2022-09-10T00:56:09.058Z,1.60
2022-09-10T00:57:12.206Z,0.00
2022-09-10T00:58:15.449Z,0.00
2022-09-10T00:59:19.014Z,1.00
2022-09-10T01:00:22.493Z,9.50
2022-09-10T01:01:25.880Z,6.25
2022-09-10T01:02:29.161Z,1.00
2022-09-10T01:03:32.555Z,1.50
2022-09-10T01:04:36.152Z,0.75
2022-09-10T01:05:39.842Z,3.20
2022-09-10T01:06:43.085Z,4.00
2022-09-10T01:07:46.714Z,2.50
2022-09-10T01:08:50.199Z,0.00
2022-09-10T01:09:53.491Z,1.00
2022-09-10T01:10:56.872Z,1.25
2022-09-10T01:12:00.157Z,4.50
2022-09-10T01:13:03.644Z,3.50
2022-09-10T01:14:06.933Z,1.00
2022-09-10T01:15:11.042Z,0.50
2022-09-10T01:16:14.495Z,0.00
2022-09-10T01:17:17.809Z,2.50
2022-09-10T01:18:21.198Z,3.50
2022-09-10T01:19:24.242Z,7.50
2022-09-10T01:20:27.272Z,6.25
2022-09-10T01:21:30.435Z,0.00
2022-09-10T01:22:33.924Z,0.75
2022-09-10T01:23:37.207Z,1.00
2022-09-10T01:24:40.701Z,2.40
2022-09-10T01:25:44.282Z,2.00
2022-09-10T01:26:47.380Z,1.50
2022-09-10T01:27:50.654Z,2.50
2022-09-10T01:28:53.939Z,0.25
2022-09-10T01:29:57.105Z,0.00
2022-09-10T01:31:00.604Z,0.00
2022-09-10T01:32:03.859Z,1.00
2022-09-10T01:33:06.981Z,1.00
2022-09-10T01:34:10.461Z,0.50
2022-09-10T01:35:13.844Z,0.50
2022-09-10T01:36:17.147Z,0.50
2022-09-10T01:37:20.617Z,1.50
2022-09-10T01:38:23.867Z,2.00
2022-09-10T01:39:27.496Z,0.75
2022-09-10T01:40:30.772Z,1.00
2022-09-10T01:41:34.171Z,0.50
2022-09-10T01:42:37.985Z,0.00
2022-09-10T01:43:41.659Z,0.25
2022-09-10T01:44:45.347Z,0.00
2022-09-10T01:45:49.206Z,0.00
2022-09-10T01:46:52.629Z,1.50
2022-09-10T01:47:55.927Z,1.50
2022-09-10T01:48:59.202Z,14.00
2022-09-10T01:50:02.550Z,11.75
2022-09-10T01:51:05.689Z,0.50
2022-09-10T01:52:09.155Z,0.00
2022-09-10T01:53:12.341Z,0.00
2022-09-10T01:54:15.829Z,0.00
2022-09-10T01:55:19.525Z,0.50
2022-09-10T01:56:23.116Z,0.00
2022-09-10T01:57:26.168Z,0.00
2022-09-10T01:58:29.580Z,0.60
2022-09-10T01:59:32.868Z,1.00
2022-09-10T02:00:35.904Z,1.00
2022-09-10T02:01:39.130Z,0.50
2022-09-10T02:02:42.644Z,0.25
2022-09-10T02:03:45.899Z,0.00
2022-09-10T02:04:49.491Z,1.25
2022-09-10T02:05:52.773Z,1.50
2022-09-10T02:06:55.926Z,2.00
2022-09-10T02:07:59.348Z,1.50
2022-09-10T02:09:02.829Z,0.00
2022-09-10T02:10:06.030Z,0.00
2022-09-10T02:11:09.399Z,0.00
2022-09-10T02:12:12.785Z,1.00
2022-09-10T02:13:16.514Z,1.25
2022-09-10T02:14:20.484Z,3.50
2022-09-10T02:15:23.769Z,1.50
2022-09-10T02:16:27.055Z,0.00
2022-09-10T02:17:30.443Z,1.00
2022-09-10T02:18:33.830Z,0.50
2022-09-10T02:19:37.726Z,0.50
2022-09-10T02:20:41.117Z,0.00
2022-09-10T02:21:44.495Z,0.00
2022-09-10T02:22:47.741Z,0.50
2022-09-10T02:23:50.697Z,2.00
2022-09-10T02:24:53.841Z,1.00
2022-09-10T02:25:56.977Z,0.00
2022-09-10T02:27:00.403Z,0.50
2022-09-10T02:28:03.794Z,0.00
2022-09-10T02:29:07.278Z,0.00
2022-09-10T02:30:10.969Z,0.50
2022-09-10T02:31:14.174Z,2.00
2022-09-10T02:32:17.439Z,4.50
2022-09-10T02:33:20.924Z,2.00
2022-09-10T02:34:24.418Z,0.00
2022-09-10T02:35:27.804Z,2.25
2022-09-10T02:36:31.090Z,1.00
2022-09-10T02:37:34.897Z,1.25
2022-09-10T02:38:38.239Z,0.00
2022-09-10T02:39:41.583Z,0.50
2022-09-10T02:40:44.955Z,2.50
2022-09-10T02:41:48.432Z,2.00
2022-09-10T02:42:51.814Z,0.00
2022-09-10T02:43:55.305Z,0.00
2022-09-10T02:44:58.562Z,0.00
2022-09-10T02:46:01.820Z,0.00
2022-09-10T02:47:05.263Z,0.50
2022-09-10T02:48:08.546Z,0.50
2022-09-10T02:49:12.546Z,2.00
2022-09-10T02:50:16.256Z,1.50
2022-09-10T02:51:19.749Z,0.50
2022-09-10T02:52:23.220Z,0.00
2022-09-10T02:53:26.408Z,0.00
2022-09-10T02:54:29.900Z,0.00
2022-09-10T02:55:33.277Z,0.60
2022-09-10T02:56:36.764Z,0.50
2022-09-10T02:57:40.152Z,0.00
2022-09-10T02:58:43.528Z,0.00
2022-09-10T02:59:46.715Z,0.50
2022-09-10T03:00:50.061Z,0.25
2022-09-10T03:01:53.422Z,0.50
2022-09-10T03:03:00.954Z,0.50
2022-09-10T03:04:01.301Z,0.00
2022-09-10T03:05:04.866Z,0.00
2022-09-10T03:06:08.062Z,0.00
2022-09-10T03:07:11.247Z,0.00
2022-09-10T03:08:14.644Z,0.00
2022-09-10T03:09:17.918Z,0.00
2022-09-10T03:10:21.194Z,0.00
2022-09-10T03:11:24.487Z,0.50
2022-09-10T03:12:27.794Z,0.00
2022-09-10T03:13:30.945Z,0.50
2022-09-10T03:14:34.349Z,0.50
2022-09-10T03:15:37.727Z,0.00
2022-09-10T03:16:41.351Z,0.00
2022-09-10T03:17:44.598Z,0.00
2022-09-10T03:18:48.012Z,0.00
2022-09-10T03:19:51.689Z,0.00
2022-09-10T03:20:55.171Z,0.50
2022-09-10T03:21:58.203Z,0.50
2022-09-10T03:23:01.329Z,0.50
2022-09-10T03:24:05.338Z,1.50
2022-09-10T03:25:08.720Z,1.00
2022-09-10T03:26:12.126Z,0.00
2022-09-10T03:27:15.489Z,0.50
2022-09-10T03:28:18.683Z,0.50
2022-09-10T03:29:22.054Z,0.00
2022-09-10T03:30:25.340Z,0.00
2022-09-10T03:31:28.547Z,0.00
2022-09-10T03:32:31.812Z,0.00
2022-09-10T03:33:35.093Z,0.00
2022-09-10T03:34:38.479Z,0.00
2022-09-10T03:35:41.764Z,0.00
2022-09-10T03:36:45.046Z,0.00
2022-09-10T03:37:48.232Z,0.00
2022-09-10T03:38:51.529Z,0.00
2022-09-10T03:39:55.043Z,0.00
2022-09-10T03:40:58.603Z,0.00
2022-09-10T03:42:01.777Z,0.00
2022-09-10T03:43:05.060Z,0.00
2022-09-10T03:44:08.035Z,0.00
2022-09-10T03:45:11.218Z,0.00
2022-09-10T03:46:14.605Z,0.00
2022-09-10T03:47:17.892Z,0.00
2022-09-10T03:48:21.066Z,0.00
2022-09-10T03:49:24.261Z,0.00
2022-09-10T03:50:27.543Z,0.50
2022-09-10T03:51:30.822Z,0.25
2022-09-10T03:52:34.000Z,0.00
2022-09-10T03:53:37.386Z,0.00
2022-09-10T03:54:40.988Z,0.00
2022-09-10T03:55:44.780Z,0.00
2022-09-10T03:56:48.057Z,0.00
2022-09-10T03:57:51.579Z,0.00
2022-09-10T03:58:55.142Z,0.00
2022-09-10T03:59:58.947Z,0.00
2022-09-10T04:01:02.574Z,0.00
2022-09-10T04:02:05.956Z,0.00
2022-09-10T04:03:09.098Z,0.25
2022-09-10T04:04:12.890Z,0.00
2022-09-10T04:05:16.182Z,0.00
2022-09-10T04:06:19.360Z,0.00
2022-09-10T04:07:22.952Z,0.00
2022-09-10T04:08:26.458Z,0.00
2022-09-10T04:09:29.726Z,0.00
2022-09-10T04:10:33.006Z,0.00
2022-09-10T04:11:36.276Z,0.25
2022-09-10T04:12:39.577Z,0.00
2022-09-10T04:13:42.859Z,0.00
2022-09-10T04:14:46.143Z,0.00
2022-09-10T04:15:49.431Z,0.00
2022-09-10T04:16:52.815Z,0.00
2022-09-10T04:17:56.303Z,0.00
2022-09-10T04:19:00.203Z,0.00
2022-09-10T04:20:03.798Z,0.25
2022-09-10T04:21:07.047Z,0.00
2022-09-10T04:22:10.362Z,0.50
2022-09-10T04:23:13.650Z,0.50
2022-09-10T04:24:17.033Z,0.00
2022-09-10T04:25:19.821Z,0.50
2022-09-10T04:26:23.498Z,0.00
2022-09-10T04:27:26.888Z,0.00
2022-09-10T04:28:30.282Z,0.00
2022-09-10T04:29:33.661Z,0.00
2022-09-10T04:30:37.457Z,0.00
2022-09-10T04:31:40.777Z,0.00
2022-09-10T04:32:44.637Z,0.00
2022-09-10T04:33:47.718Z,0.00
2022-09-10T04:34:50.880Z,0.00
2022-09-10T04:35:54.070Z,0.00
2022-09-10T04:36:57.261Z,0.00
2022-09-10T04:38:00.405Z,0.00
2022-09-10T04:39:03.628Z,0.50
2022-09-10T04:40:07.133Z,0.50
2022-09-10T04:41:10.221Z,0.00
2022-09-10T04:42:13.477Z,0.50
2022-09-10T04:43:16.767Z,0.00
2022-09-10T04:44:20.165Z,0.50
2022-09-10T04:45:23.430Z,0.00
2022-09-10T04:46:26.622Z,0.00
2022-09-10T04:47:29.800Z,0.00
2022-09-10T04:48:32.980Z,0.00
2022-09-10T04:49:36.032Z,0.00
2022-09-10T04:50:46.463Z,0.00
2022-09-10T04:51:43.459Z,0.00
2022-09-10T04:52:46.732Z,0.50
2022-09-10T04:53:49.909Z,1.00
2022-09-10T04:54:53.090Z,0.00
2022-09-10T04:55:56.382Z,0.00
2022-09-10T04:56:59.763Z,0.50
2022-09-10T04:58:03.368Z,0.50
2022-09-10T04:59:06.484Z,0.00
2022-09-10T05:00:09.719Z,0.00
2022-09-10T05:01:12.929Z,0.00
2022-09-10T05:02:16.431Z,0.00
2022-09-10T05:03:19.877Z,0.25
2022-09-10T05:04:23.163Z,0.50
2022-09-10T05:05:26.552Z,0.50
2022-09-10T05:06:29.732Z,0.50
2022-09-10T05:07:32.920Z,0.00
2022-09-10T05:08:36.555Z,0.00
2022-09-10T05:09:39.894Z,0.00
2022-09-10T05:10:43.485Z,0.00
2022-09-10T05:11:46.971Z,0.00
2022-09-10T05:12:50.465Z,0.00
2022-09-10T05:13:53.748Z,0.00
2022-09-10T05:14:57.549Z,0.00
2022-09-10T05:16:01.044Z,0.25
2022-09-10T05:17:04.524Z,0.00
2022-09-10T05:18:07.600Z,0.00
2022-09-10T05:19:11.055Z,0.00
2022-09-10T05:20:14.062Z,0.00
2022-09-10T05:21:17.268Z,0.00
2022-09-10T05:22:20.433Z,0.00
2022-09-10T05:23:23.716Z,0.00
2022-09-10T05:24:26.996Z,0.00
2022-09-10T05:25:30.279Z,0.00
2022-09-10T05:26:33.437Z,0.50
2022-09-10T05:27:36.748Z,0.25
2022-09-10T05:28:40.247Z,0.50
2022-09-10T05:29:44.040Z,0.50
2022-09-10T05:30:51.372Z,0.00
2022-09-10T05:31:52.650Z,0.00
2022-09-10T05:32:56.339Z,0.00
2022-09-10T05:33:59.743Z,0.00
2022-09-10T05:35:03.529Z,0.00
2022-09-10T05:36:07.055Z,0.00
2022-09-10T05:37:10.609Z,0.00
2022-09-10T05:38:14.094Z,0.00
2022-09-10T05:39:17.583Z,0.00
2022-09-10T05:40:21.279Z,0.00
2022-09-10T05:41:24.868Z,0.00
2022-09-10T05:42:28.573Z,0.00
2022-09-10T05:43:32.153Z,0.50
2022-09-10T05:44:35.647Z,0.00
2022-09-10T05:45:39.293Z,0.00
2022-09-10T05:46:42.725Z,0.00
2022-09-10T05:47:46.415Z,0.00
2022-09-10T05:48:50.414Z,0.00
2022-09-10T05:49:53.712Z,0.00
2022-09-10T05:50:56.885Z,0.00
2022-09-10T05:52:00.473Z,0.00
2022-09-10T05:53:04.169Z,0.00
2022-09-10T05:54:07.353Z,0.00
2022-09-10T05:55:10.844Z,0.00
2022-09-10T05:56:14.131Z,0.00
2022-09-10T05:57:17.522Z,0.00
2022-09-10T05:58:20.898Z,0.50
2022-09-10T05:59:24.594Z,0.50
2022-09-10T06:00:28.209Z,0.00
2022-09-10T06:01:32.086Z,0.00
2022-09-10T06:02:35.542Z,0.00
2022-09-10T06:03:39.271Z,0.00
2022-09-10T06:04:42.756Z,0.00
2022-09-10T06:05:46.147Z,0.00
2022-09-10T06:06:49.533Z,0.00
2022-09-10T06:07:53.015Z,0.00
2022-09-10T06:08:56.407Z,0.20
2022-09-10T06:10:00.335Z,0.00
2022-09-10T06:11:03.796Z,0.50
2022-09-10T06:12:07.074Z,0.50
2022-09-10T06:13:10.870Z,0.00
2022-09-10T06:14:14.151Z,0.00
2022-09-10T06:15:17.368Z,0.00
2022-09-10T06:16:21.085Z,0.50
2022-09-10T06:17:24.830Z,0.50
2022-09-10T06:18:28.419Z,0.50
2022-09-10T06:19:32.010Z,0.00
2022-09-10T06:20:35.495Z,0.00
2022-09-10T06:21:39.095Z,0.00
2022-09-10T06:22:42.687Z,0.00
2022-09-10T06:23:46.166Z,0.25
2022-09-10T06:24:49.863Z,0.00
2022-09-10T06:25:53.249Z,0.00
2022-09-10T06:26:56.952Z,0.00
2022-09-10T06:28:00.330Z,0.00
2022-09-10T06:29:03.716Z,0.00
2022-09-10T06:30:07.025Z,0.00
2022-09-10T06:31:10.320Z,0.00
2022-09-10T06:32:13.990Z,0.00
2022-09-10T06:33:17.158Z,0.00
2022-09-10T06:34:20.759Z,0.00
2022-09-10T06:35:24.450Z,0.00
2022-09-10T06:36:27.842Z,0.00
2022-09-10T06:37:31.834Z,0.00
2022-09-10T06:38:35.548Z,0.00
2022-09-10T06:39:39.155Z,0.00
2022-09-10T06:40:42.607Z,0.00
2022-09-10T06:41:49.486Z,0.50
2022-09-10T06:42:50.613Z,0.00
2022-09-10T06:43:54.019Z,0.00
2022-09-10T06:44:57.382Z,0.00
2022-09-10T06:46:00.731Z,0.00
2022-09-10T06:47:45.919Z,0.00
2022-09-10T06:49:12.873Z,0.50
2022-09-10T06:52:49.147Z,0.50
2022-09-10T06:53:52.664Z,0.00
2022-09-10T06:54:56.538Z,0.00
2022-09-10T06:56:00.134Z,0.00
2022-09-10T06:57:03.730Z,0.00
2022-09-10T06:58:07.110Z,0.00
2022-09-10T06:59:10.605Z,0.00
2022-09-10T07:00:13.974Z,0.50
2022-09-10T07:01:17.314Z,0.25
2022-09-10T07:02:20.602Z,0.00
2022-09-10T07:03:24.245Z,0.00
2022-09-10T07:04:27.940Z,0.00
2022-09-10T07:05:31.833Z,0.00
2022-09-10T07:06:38.709Z,0.00
2022-09-10T07:07:42.504Z,0.00
2022-09-10T07:08:45.892Z,0.00
2022-09-10T07:09:49.273Z,0.00
2022-09-10T07:10:52.606Z,0.00
2022-09-10T07:13:01.073Z,0.00
2022-09-10T07:14:04.357Z,0.00
2022-09-10T07:15:07.501Z,0.00
2022-09-10T07:16:10.750Z,0.50
2022-09-10T07:18:21.795Z,0.50
2022-09-10T07:19:25.074Z,0.50
2022-09-10T07:20:28.560Z,0.00
2022-09-10T07:22:48.034Z,0.50
2022-09-10T07:23:51.324Z,1.00
2022-09-10T07:24:54.811Z,0.50
2022-09-10T07:25:58.093Z,0.00
2022-09-10T07:27:01.493Z,0.00
2022-09-10T07:28:04.667Z,0.00
2022-09-10T07:29:07.945Z,0.00
2022-09-10T07:30:11.435Z,0.50
2022-09-10T07:31:14.658Z,1.00
2022-09-10T07:32:17.909Z,1.00
2022-09-10T07:33:21.184Z,0.50
2022-09-10T07:34:24.471Z,0.50
2022-09-10T07:35:27.957Z,0.50
2022-09-10T07:36:31.241Z,0.00
2022-09-10T07:37:34.537Z,0.50
2022-09-10T07:38:37.792Z,1.00
2022-09-10T07:40:57.080Z,0.50
2022-09-10T07:42:00.664Z,0.50
2022-09-10T07:43:04.332Z,1.00
2022-09-10T07:44:07.752Z,1.50
2022-09-10T07:45:11.037Z,1.00
2022-09-10T07:46:14.350Z,0.50
2022-09-10T07:47:17.718Z,1.00
2022-09-10T07:48:21.195Z,1.00
2022-09-10T07:49:24.782Z,1.50
2022-09-10T07:50:28.791Z,1.50
2022-09-10T07:51:32.613Z,1.00
2022-09-10T07:52:36.384Z,0.75
2022-09-10T07:53:47.564Z,0.00
2022-09-10T07:54:44.440Z,0.00
2022-09-10T07:55:48.076Z,1.00
2022-09-10T07:56:51.883Z,2.50
2022-09-10T07:57:58.356Z,3.50
2022-09-10T07:58:59.501Z,2.00
2022-09-10T08:00:02.983Z,3.00
2022-09-10T08:01:07.223Z,4.50
2022-09-10T08:02:10.811Z,5.00
2022-09-10T08:03:13.953Z,6.25
2022-09-10T08:04:17.316Z,4.75
2022-09-10T08:06:37.008Z,5.50
2022-09-10T08:07:40.689Z,3.50
2022-09-10T08:08:43.981Z,5.50
2022-09-10T08:09:47.359Z,5.00
2022-09-10T08:10:50.965Z,4.75
2022-09-10T08:11:54.539Z,5.50
2022-09-10T08:12:58.253Z,6.00
2022-09-10T08:14:01.933Z,7.50
2022-09-10T08:15:05.465Z,7.25
2022-09-10T08:16:09.084Z,5.75
2022-09-10T08:17:12.499Z,6.00
2022-09-10T08:18:15.696Z,4.50
2022-09-10T08:19:18.977Z,4.00
2022-09-10T08:20:22.449Z,5.50
2022-09-10T08:21:26.045Z,6.00
2022-09-10T08:22:29.637Z,7.75
2022-09-10T08:23:33.122Z,8.25
2022-09-10T08:24:36.414Z,6.75
2022-09-10T08:25:39.898Z,7.50
2022-09-10T08:26:43.389Z,8.25
2022-09-10T08:27:46.770Z,7.25
2022-09-10T08:28:50.364Z,4.50
2022-09-10T08:29:53.792Z,3.75
2022-09-10T08:30:57.376Z,5.50
2022-09-10T08:32:00.838Z,6.00
2022-09-10T08:33:04.332Z,6.00
2022-09-10T08:35:23.816Z,6.75
2022-09-10T08:36:26.974Z,5.50
2022-09-10T08:37:30.262Z,5.00
2022-09-10T08:38:33.445Z,5.50
2022-09-10T08:39:36.580Z,4.50
2022-09-10T08:40:39.909Z,3.00
2022-09-10T08:41:43.289Z,3.00
2022-09-10T08:42:47.606Z,3.75
2022-09-10T08:43:51.405Z,5.00
2022-09-10T08:44:55.199Z,4.50
2022-09-10T08:45:58.936Z,3.00
2022-09-10T08:47:02.587Z,4.00
2022-09-10T08:48:05.868Z,5.00
2022-09-10T08:49:09.056Z,5.00
2022-09-10T08:50:12.334Z,4.00
2022-09-10T08:51:15.731Z,5.00
2022-09-10T08:52:19.007Z,4.00
2022-09-10T08:53:22.393Z,3.50
2022-09-10T08:54:25.671Z,3.25
2022-09-10T08:55:29.247Z,3.00
2022-09-10T08:56:32.550Z,2.00
2022-09-10T08:57:35.832Z,4.00
2022-09-10T08:58:39.261Z,5.25
2022-09-10T08:59:42.478Z,3.50
2022-09-10T09:00:45.474Z,2.00
2022-09-10T09:01:48.773Z,3.25
2022-09-10T09:02:51.865Z,3.75
2022-09-10T09:03:55.026Z,4.00
2022-09-10T09:04:58.312Z,4.25
2022-09-10T09:06:01.744Z,3.75
2022-09-10T09:07:04.881Z,3.00
2022-09-10T09:08:08.166Z,3.00
2022-09-10T09:09:15.281Z,2.50
2022-09-10T09:10:16.329Z,3.25
2022-09-10T09:11:20.175Z,3.50
2022-09-10T09:12:23.555Z,2.75
2022-09-10T09:13:26.933Z,2.00
2022-09-10T09:14:30.326Z,3.60
2022-09-10T09:15:33.892Z,3.25
2022-09-10T09:16:37.221Z,3.00
2022-09-10T09:17:40.897Z,3.00
2022-09-10T09:18:44.287Z,3.75
2022-09-10T09:19:47.671Z,4.50
2022-09-10T09:20:50.953Z,3.00
2022-09-10T09:21:54.344Z,2.50
2022-09-10T09:22:57.928Z,3.25
2022-09-10T09:24:13.329Z,3.00
2022-09-10T09:25:05.831Z,3.25
2022-09-10T09:26:09.424Z,1.25
2022-09-10T09:27:13.320Z,2.50
2022-09-10T09:28:16.669Z,2.75
2022-09-10T09:29:19.799Z,3.00
2022-09-10T09:30:23.385Z,3.00
2022-09-10T09:31:26.902Z,2.50
2022-09-10T09:32:30.392Z,2.00
2022-09-10T09:33:33.755Z,2.00
2022-09-10T09:34:37.254Z,1.00
2022-09-10T09:35:40.527Z,1.00
2022-09-10T09:36:43.900Z,1.25
2022-09-10T09:37:47.396Z,1.50
2022-09-10T09:38:50.998Z,2.00
2022-09-10T09:39:54.316Z,1.50
2022-09-10T09:40:57.766Z,2.00
2022-09-10T09:42:01.457Z,3.75
2022-09-10T09:43:05.039Z,4.00
2022-09-10T09:44:08.528Z,4.50
2022-09-10T09:45:12.531Z,5.00
2022-09-10T09:46:15.816Z,4.50
2022-09-10T09:47:19.415Z,3.50
2022-09-10T09:48:22.584Z,4.50
2022-09-10T09:49:25.869Z,4.50
2022-09-10T09:50:29.364Z,2.50
2022-09-10T09:51:32.853Z,3.00
2022-09-10T09:52:36.337Z,3.50
2022-09-10T09:53:39.935Z,3.00
2022-09-10T09:55:12.601Z,2.50
2022-09-10T09:55:47.938Z,2.00
2022-09-10T09:56:51.630Z,2.00
2022-09-10T09:57:55.011Z,2.00
2022-09-10T09:58:58.402Z,2.00
2022-09-10T10:00:02.094Z,2.50
2022-09-10T10:01:05.545Z,4.00
2022-09-10T10:02:09.053Z,2.75
2022-09-10T10:03:12.780Z,3.00
2022-09-10T10:04:16.254Z,2.50
2022-09-10T10:05:19.649Z,2.00
2022-09-10T10:06:22.851Z,2.50
2022-09-10T10:07:26.225Z,2.25
2022-09-10T10:08:29.701Z,3.25
2022-09-10T10:09:33.201Z,1.00
2022-09-10T10:10:36.779Z,1.00
2022-09-10T10:11:39.963Z,1.00
2022-09-10T10:12:43.351Z,1.50
2022-09-10T10:13:46.999Z,1.50
2022-09-10T10:14:50.325Z,0.75
2022-09-10T10:15:53.838Z,1.00
2022-09-10T10:17:00.555Z,1.00
2022-09-10T10:18:02.024Z,1.50
2022-09-10T10:19:05.408Z,1.50
2022-09-10T10:20:08.903Z,1.50
2022-09-10T10:21:12.285Z,1.00
2022-09-10T10:22:15.572Z,1.00
2022-09-10T10:23:19.569Z,2.00
2022-09-10T10:24:22.851Z,1.50
2022-09-10T10:25:26.357Z,1.00
2022-09-10T10:26:29.627Z,1.50
2022-09-10T10:27:32.673Z,2.00
2022-09-10T10:28:36.077Z,2.00
2022-09-10T10:29:39.174Z,2.00
2022-09-10T10:30:42.513Z,1.50
2022-09-10T10:31:46.048Z,0.50
2022-09-10T10:32:49.433Z,0.50
2022-09-10T10:33:52.499Z,2.00
2022-09-10T10:34:55.799Z,2.25
2022-09-10T10:35:59.083Z,2.00
2022-09-10T10:37:02.368Z,2.00
2022-09-10T10:38:05.652Z,2.50
2022-09-10T10:39:09.142Z,1.50
2022-09-10T10:40:12.574Z,1.00
2022-09-10T10:41:15.492Z,1.00
2022-09-10T10:42:18.911Z,0.50
2022-09-10T10:43:22.379Z,0.00
2022-09-10T10:44:25.696Z,0.50
2022-09-10T10:45:29.068Z,0.50
2022-09-10T10:46:32.359Z,1.00
2022-09-10T10:47:35.620Z,0.00
2022-09-10T10:48:38.889Z,0.00
2022-09-10T10:49:42.092Z,0.00
2022-09-10T10:50:47.023Z,0.50
2022-09-10T10:51:49.435Z,0.50
2022-09-10T10:52:52.958Z,0.00
2022-09-10T10:53:56.246Z,0.50
2022-09-10T10:54:59.731Z,0.50
2022-09-10T10:56:03.014Z,1.50
2022-09-10T10:57:06.299Z,1.25
2022-09-10T10:58:09.682Z,1.50
2022-09-10T10:59:12.868Z,0.50
2022-09-10T11:00:16.360Z,1.00
2022-09-10T11:01:19.668Z,1.00
2022-09-10T11:02:23.235Z,0.50
2022-09-10T11:03:26.720Z,0.00
2022-09-10T11:04:30.119Z,0.00
2022-09-10T11:05:33.496Z,0.50
2022-09-10T11:06:36.883Z,1.00
2022-09-10T11:07:40.370Z,0.50
2022-09-10T11:08:43.819Z,0.25
2022-09-10T11:09:47.251Z,0.00
2022-09-10T11:10:50.742Z,0.50
2022-09-10T11:11:54.097Z,0.00
2022-09-10T11:12:57.409Z,0.25
2022-09-10T11:14:01.508Z,0.00
2022-09-10T11:15:06.336Z,0.00
2022-09-10T11:16:09.851Z,0.00
2022-09-10T11:17:13.216Z,0.00
2022-09-10T11:18:16.699Z,0.00
2022-09-10T11:19:20.078Z,0.00
2022-09-10T11:20:30.594Z,0.00
2022-09-10T11:21:28.189Z,0.00
2022-09-10T11:22:31.576Z,0.00
2022-09-10T11:23:35.064Z,0.00
2022-09-10T11:24:38.360Z,0.00
2022-09-10T11:25:41.528Z,0.00
2022-09-10T11:26:44.639Z,0.50
2022-09-10T11:27:47.790Z,1.00
2022-09-10T11:28:50.977Z,0.80
2022-09-10T11:29:54.051Z,0.00
2022-09-10T11:30:57.384Z,1.00
2022-09-10T11:32:00.514Z,0.50
2022-09-10T11:33:03.692Z,0.00
2022-09-10T11:34:06.981Z,0.00
2022-09-10T11:35:10.174Z,0.00
2022-09-10T11:36:13.350Z,0.00
2022-09-10T11:37:16.632Z,0.00
2022-09-10T11:38:19.640Z,0.25
2022-09-10T11:39:22.905Z,0.25
2022-09-10T11:40:26.278Z,1.00
2022-09-10T11:41:29.428Z,1.00
2022-09-10T11:42:32.449Z,1.00
2022-09-10T11:43:35.718Z,1.00
2022-09-10T11:44:39.006Z,0.25
2022-09-10T11:45:42.314Z,0.00
2022-09-10T11:46:45.379Z,0.00
2022-09-10T11:47:48.656Z,0.00
2022-09-10T11:48:51.940Z,0.00
2022-09-10T11:49:55.222Z,0.25
2022-09-10T11:50:58.516Z,1.00
2022-09-10T11:52:02.375Z,0.75
2022-09-10T11:53:05.688Z,0.50
2022-09-10T11:54:08.769Z,0.00
2022-09-10T11:55:12.063Z,0.50
2022-09-10T11:56:15.443Z,0.00
2022-09-10T11:57:18.826Z,0.50
2022-09-10T11:58:22.215Z,1.00
2022-09-10T11:59:26.108Z,1.00
2022-09-10T12:00:29.393Z,1.50
2022-09-10T12:01:32.682Z,1.50
2022-09-10T12:02:35.985Z,1.00
2022-09-10T12:03:39.256Z,1.00
2022-09-10T12:04:45.702Z,0.25
2022-09-10T12:05:46.943Z,0.00
2022-09-10T12:06:51.161Z,1.00
2022-09-10T12:07:54.535Z,1.00
2022-09-10T12:08:57.918Z,0.50
2022-09-10T12:10:01.206Z,1.50
2022-09-10T12:11:04.598Z,1.25
2022-09-10T12:12:07.874Z,1.00
2022-09-10T12:13:11.056Z,0.50
2022-09-10T12:14:28.066Z,0.00
2022-09-10T12:15:31.555Z,2.00
2022-09-10T12:16:35.043Z,1.00
2022-09-10T12:17:38.559Z,0.50
2022-09-10T12:18:42.870Z,0.50
2022-09-10T12:19:46.430Z,1.00
2022-09-10T12:20:49.820Z,1.50
2022-09-10T12:21:53.209Z,0.50
2022-09-10T12:22:56.896Z,0.50
2022-09-10T12:24:00.344Z,0.00
2022-09-10T12:25:03.303Z,0.50
2022-09-10T12:26:05.803Z,1.00
2022-09-10T12:27:08.694Z,1.00
2022-09-10T12:28:11.226Z,1.25
2022-09-10T12:29:14.029Z,1.25
2022-09-10T12:30:16.690Z,1.50
2022-09-10T12:31:19.337Z,2.00
2022-09-10T12:32:22.017Z,0.50
2022-09-10T12:33:24.642Z,1.00
2022-09-10T12:34:27.444Z,1.00
2022-09-10T12:35:30.254Z,1.00
2022-09-10T12:36:33.163Z,0.50
2022-09-10T12:37:36.004Z,0.50
2022-09-10T12:38:38.827Z,0.50
2022-09-10T12:39:41.611Z,0.50
2022-09-10T12:40:44.510Z,0.50
2022-09-10T12:41:47.323Z,0.00
2022-09-10T12:42:49.969Z,0.25
2022-09-10T12:43:52.494Z,0.50
2022-09-10T12:44:55.166Z,0.50
2022-09-10T12:45:57.781Z,0.00
2022-09-10T12:47:00.406Z,0.50
2022-09-10T12:48:03.009Z,1.00
2022-09-10T12:49:05.684Z,1.00
2022-09-10T12:50:08.214Z,1.50
2022-09-10T12:51:10.778Z,1.00
2022-09-10T12:52:13.253Z,0.75
2022-09-10T12:53:15.985Z,1.00
2022-09-10T12:54:18.556Z,0.50
2022-09-10T12:55:21.202Z,1.25
2022-09-10T12:56:23.834Z,1.00
2022-09-10T12:57:26.476Z,1.00
2022-09-10T12:58:29.336Z,0.75
2022-09-10T12:59:31.867Z,2.00
2022-09-10T13:00:34.743Z,1.50
2022-09-10T13:01:37.619Z,1.00
2022-09-10T13:02:40.604Z,1.00
2022-09-10T13:03:43.571Z,1.00
2022-09-10T13:04:46.469Z,0.50
2022-09-10T13:05:49.356Z,1.00
2022-09-10T13:06:52.252Z,1.50
2022-09-10T13:07:55.096Z,2.00
2022-09-10T13:08:57.885Z,2.25
2022-09-10T13:10:00.823Z,1.25
2022-09-10T13:11:03.665Z,0.50
2022-09-10T13:12:06.318Z,1.00
2022-09-10T13:13:09.067Z,1.50
2022-09-10T13:14:11.626Z,1.50
2022-09-10T13:15:14.410Z,1.00
2022-09-10T13:16:16.996Z,1.00
2022-09-10T13:17:19.649Z,2.50
2022-09-10T13:18:22.336Z,3.00
2022-09-10T13:19:24.931Z,2.00
2022-09-10T13:20:27.814Z,1.50
2022-09-10T13:21:30.701Z,1.50
2022-09-10T13:22:33.597Z,2.00
2022-09-10T13:23:36.509Z,2.50
2022-09-10T13:24:39.361Z,1.25
2022-09-10T13:25:42.185Z,1.00
2022-09-10T13:26:45.080Z,2.00
2022-09-10T13:27:47.988Z,2.00
2022-09-10T13:28:50.820Z,2.00
2022-09-10T13:29:53.559Z,2.00
2022-09-10T13:30:56.388Z,2.00
2022-09-10T13:31:59.194Z,2.00
2022-09-10T13:33:02.094Z,2.50
2022-09-10T13:34:04.663Z,1.50
2022-09-10T13:35:08.544Z,1.50
2022-09-10T13:36:11.076Z,3.00
2022-09-10T13:37:13.683Z,3.75
2022-09-10T13:38:16.271Z,3.00
2022-09-10T13:39:18.843Z,2.50
2022-09-10T13:40:21.449Z,1.75
2022-09-10T13:41:24.082Z,1.00
2022-09-10T13:42:26.642Z,0.50
2022-09-10T13:43:29.270Z,1.00
2022-09-10T13:44:31.858Z,1.50
2022-09-10T13:45:34.443Z,2.00
2022-09-10T13:46:37.271Z,1.50
2022-09-10T13:47:39.967Z,2.00
2022-09-10T13:48:42.696Z,2.50
2022-09-10T13:49:45.450Z,2.25
2022-09-10T13:50:48.319Z,1.00
2022-09-10T13:51:51.124Z,1.00
2022-09-10T13:52:54.006Z,1.50
2022-09-10T13:53:56.801Z,1.50
2022-09-10T13:54:59.596Z,1.50
2022-09-10T13:56:02.454Z,1.00
2022-09-10T13:57:05.323Z,1.25
2022-09-10T13:58:07.804Z,1.00
2022-09-10T13:59:10.597Z,1.00
2022-09-10T14:00:13.103Z,1.50
2022-09-10T14:01:15.690Z,1.50
2022-09-10T14:02:18.418Z,1.00
2022-09-10T14:03:21.081Z,2.00
2022-09-10T14:04:23.689Z,3.50
2022-09-10T14:05:26.266Z,2.50
2022-09-10T14:06:29.069Z,1.00
2022-09-10T14:07:31.880Z,1.75
2022-09-10T14:08:34.736Z,3.00
2022-09-10T14:09:37.619Z,2.50
2022-09-10T14:10:40.442Z,1.75
2022-09-10T14:11:43.269Z,1.50
2022-09-10T14:12:46.182Z,1.50
2022-09-10T14:13:48.959Z,2.00